Time;durP1;ratioP1;P1;durP2;ratioP2;P2;SDS_P1;SDS_P2;PMS_P1;PMS_P2;Temp;Humidity;BMP_temperature;BMP_pressure;BME280_temperature;BME280_humidity;BME280_pressure;Samples;Min_cycle;Max_cycle;Signal;HPM_P1;HPM_P2
2022/06/06 00:01:52;;;;;;;20.63;13.60;;;14.70;99.90;;;;;;5033441;28;20507;-45
2022/06/06 00:04:19;;;;;;;19.17;13.40;;;14.90;99.90;;;;;;5029875;28;20503;-47
2022/06/06 00:06:46;;;;;;;24.55;14.05;;;14.80;99.90;;;;;;5067599;28;20044;-45
2022/06/06 00:09:15;;;;;;;23.05;14.35;;;15.50;99.90;;;;;;5054770;28;20493;-46
2022/06/06 00:11:41;;;;;;;23.88;12.90;;;14.70;99.90;;;;;;5053013;28;20045;-44
2022/06/06 00:14:09;;;;;;;20.17;12.32;;;14.70;99.90;;;;;;5052292;28;20047;-47
2022/06/06 00:16:35;;;;;;;24.50;13.40;;;14.80;99.90;;;;;;5087457;28;20041;-45
2022/06/06 00:19:02;;;;;;;19.42;11.57;;;14.60;99.90;;;;;;5051785;28;20045;-43
2022/06/06 00:21:28;;;;;;;19.10;11.70;;;14.60;99.90;;;;;;5087504;28;20048;-45
2022/06/06 00:23:59;;;;;;;19.33;11.82;;;15.20;99.90;;;;;;5052485;28;20041;-43
2022/06/06 00:26:27;;;;;;;21.98;12.35;;;16.80;99.90;;;;;;5051950;28;20052;-42
2022/06/06 00:28:53;;;;;;;22.65;12.82;;;14.70;99.90;;;;;;5066679;28;20040;-47
2022/06/06 00:36:50;;;;;;;18.95;11.65;;;16.20;99.90;;;;;;5051473;28;20118;-47
2022/06/06 00:39:17;;;;;;;19.13;11.77;;;15.10;99.90;;;;;;5052997;28;20108;-43
2022/06/06 00:41:49;;;;;;;16.67;11.82;;;14.60;99.90;;;;;;5052788;28;20045;-47
2022/06/06 00:44:21;;;;;;;21.83;12.27;;;14.80;99.90;;;;;;5051395;28;20056;-46
2022/06/06 00:46:54;;;;;;;15.02;10.40;;;14.50;99.90;;;;;;5084640;28;20278;-46
2022/06/06 00:49:32;;;;;;;16.10;9.88;;;15.10;99.90;;;;;;5052198;28;20060;-48
2022/06/06 00:51:59;;;;;;;14.38;9.55;;;15.40;99.90;;;;;;5086079;28;20057;-47
2022/06/06 00:54:25;;;;;;;17.38;11.32;;;14.40;99.90;;;;;;5052597;28;20540;-45
2022/06/06 00:57:01;;;;;;;16.42;11.32;;;14.50;99.90;;;;;;5051285;28;20112;-48
2022/06/06 00:59:32;;;;;;;16.30;11.55;;;14.50;99.90;;;;;;5036232;28;20083;-48
2022/06/06 01:01:58;;;;;;;18.52;11.88;;;14.60;99.90;;;;;;5034319;28;20292;-43
2022/06/06 01:04:26;;;;;;;19.15;12.15;;;14.40;99.90;;;;;;5035012;28;20044;-45
2022/06/06 01:06:52;;;;;;;20.27;12.68;;;15.50;99.90;;;;;;5052382;28;20048;-44
2022/06/06 01:09:20;;;;;;;16.67;11.23;;;15.90;99.90;;;;;;5052946;28;20052;-46
2022/06/06 01:11:50;;;;;;;19.23;12.38;;;16.10;99.90;;;;;;5049456;28;20121;-44
2022/06/06 01:14:20;;;;;;;16.38;11.27;;;15.10;99.90;;;;;;5053516;28;20068;-46
2022/06/06 01:16:55;;;;;;;19.52;11.70;;;15.00;99.90;;;;;;5086710;28;20048;-47
2022/06/06 01:19:52;;;;;;;16.40;11.48;;;14.30;99.90;;;;;;5086158;28;20067;-43
2022/06/06 01:22:29;;;;;;;12.18;9.50;;;14.40;99.90;;;;;;5051320;28;20046;-42
2022/06/06 01:24:58;;;;;;;19.80;11.57;;;14.20;99.90;;;;;;5052662;28;20044;-41
2022/06/06 01:27:33;;;;;;;21.33;11.10;;;14.30;99.90;;;;;;5085839;28;20532;-42
2022/06/06 01:30:06;;;;;;;17.52;10.70;;;14.90;99.90;;;;;;5052610;28;20486;-43
2022/06/06 01:32:43;;;;;;;15.55;10.45;;;14.10;99.90;;;;;;5051790;28;20048;-43
2022/06/06 01:35:11;;;;;;;24.13;11.57;;;14.20;99.90;;;;;;5052057;28;20524;-44
2022/06/06 01:37:43;;;;;;;18.23;10.05;;;15.10;99.90;;;;;;5050863;28;20071;-42
2022/06/06 01:40:13;;;;;;;14.35;9.55;;;14.90;99.90;;;;;;5050049;28;20076;-45
2022/06/06 01:42:53;;;;;;;13.30;9.77;;;15.30;99.90;;;;;;5050469;28;20056;-42
2022/06/06 01:45:42;;;;;;;14.90;9.10;;;13.90;99.90;;;;;;5047899;28;20057;-42
2022/06/06 01:48:22;;;;;;;11.40;7.45;;;14.20;99.90;;;;;;5051992;28;20060;-42
2022/06/06 01:50:48;;;;;;;15.63;8.55;;;13.90;99.90;;;;;;5049971;28;20041;-42
2022/06/06 01:53:19;;;;;;;11.93;8.10;;;13.70;99.90;;;;;;5028722;28;20054;-45
2022/06/06 01:55:47;;;;;;;12.55;8.07;;;15.30;99.90;;;;;;5050400;28;20048;-43
2022/06/06 01:58:20;;;;;;;10.30;7.13;;;14.50;99.90;;;;;;5033815;28;20521;-45
2022/06/06 02:00:46;;;;;;;16.88;7.40;;;13.90;99.90;;;;;;5051297;28;20143;-43
2022/06/06 02:03:13;;;;;;;10.25;6.82;;;13.70;99.90;;;;;;5050661;28;20032;-44
2022/06/06 02:05:39;;;;;;;11.43;6.32;;;13.90;99.90;;;;;;5035538;28;20052;-43
2022/06/06 02:08:06;;;;;;;8.10;5.68;;;13.80;99.90;;;;;;5049799;28;20049;-42
2022/06/06 02:10:31;;;;;;;16.73;5.78;;;13.70;99.90;;;;;;5051642;28;20056;-43
2022/06/06 02:12:59;;;;;;;9.52;5.40;;;15.10;99.90;;;;;;5046690;28;20052;-42
2022/06/06 02:15:26;;;;;;;9.20;5.03;;;13.40;99.90;;;;;;5051056;28;20557;-43
2022/06/06 02:17:53;;;;;;;8.57;5.18;;;15.50;99.90;;;;;;5050766;28;20063;-43
2022/06/06 02:20:24;;;;;;;11.45;6.05;;;13.60;99.90;;;;;;5050778;28;20155;-45
2022/06/06 02:22:50;;;;;;;10.05;5.63;;;14.40;99.90;;;;;;5051262;28;20193;-46
2022/06/06 02:25:16;;;;;;;11.68;6.15;;;14.80;99.90;;;;;;5051355;28;20710;-41
2022/06/06 02:27:42;;;;;;;13.90;6.32;;;13.70;99.90;;;;;;5034048;28;20037;-43
2022/06/06 02:30:21;;;;;;;14.65;7.70;;;15.20;99.90;;;;;;5051673;28;20441;-44
2022/06/06 02:32:48;;;;;;;11.15;6.80;;;14.80;99.90;;;;;;5068478;28;20056;-44
2022/06/06 02:35:17;;;;;;;12.43;7.28;;;15.50;99.90;;;;;;5049883;28;20052;-44
2022/06/06 02:37:45;;;;;;;10.30;6.43;;;13.50;99.90;;;;;;5050720;28;20045;-48
2022/06/06 02:40:12;;;;;;;13.27;8.25;;;13.80;99.90;;;;;;5051973;28;20036;-44
2022/06/06 02:42:39;;;;;;;13.10;7.70;;;13.50;99.90;;;;;;5051152;28;20032;-45
2022/06/06 02:45:18;;;;;;;13.88;8.70;;;14.10;99.90;;;;;;5031806;28;20057;-44
2022/06/06 02:47:46;;;;;;;19.13;9.45;;;13.60;99.90;;;;;;5052015;28;20994;-46
2022/06/06 02:50:14;;;;;;;14.85;9.32;;;14.30;99.90;;;;;;5050774;28;20052;-46
2022/06/06 02:52:43;;;;;;;13.75;9.25;;;13.50;99.90;;;;;;5052205;28;20200;-43
2022/06/06 02:55:10;;;;;;;16.73;9.73;;;13.50;99.90;;;;;;5084394;28;20048;-48
2022/06/06 02:57:44;;;;;;;16.80;9.50;;;13.40;99.90;;;;;;5049873;28;20056;-45
2022/06/06 03:00:19;;;;;;;21.40;10.52;;;13.30;99.90;;;;;;5053560;28;20125;-46
2022/06/06 03:02:45;;;;;;;16.70;10.00;;;13.40;99.90;;;;;;5053813;28;20501;-46
2022/06/06 03:05:11;;;;;;;18.45;10.23;;;13.40;99.90;;;;;;5054812;28;20044;-46
2022/06/06 03:08:07;;;;;;;14.93;9.02;;;15.40;99.90;;;;;;5038487;28;20665;-47
2022/06/06 03:11:02;;;;;;;17.05;9.38;;;13.50;99.90;;;;;;5038158;28;20907;-44
2022/06/06 03:14:31;;;;;;;14.18;9.30;;;13.70;99.90;;;;;;5053029;28;20032;-45
2022/06/06 03:23:41;;;;;;;15.02;8.63;;;13.40;99.90;;;;;;5035794;28;20059;-48
2022/06/06 03:26:18;;;;;;;14.80;8.30;;;13.60;99.90;;;;;;5017775;28;20631;-45
2022/06/06 03:29:10;;;;;;;16.98;9.55;;;15.50;99.90;;;;;;5034281;28;20052;-45
2022/06/06 03:32:03;;;;;;;14.77;8.75;;;13.40;99.90;;;;;;4975272;28;20577;-44
2022/06/06 03:34:53;;;;;;;13.07;8.57;;;13.50;99.90;;;;;;5008255;28;20152;-42
2022/06/06 03:37:37;;;;;;;16.83;9.25;;;13.50;99.90;;;;;;4974849;28;20057;-46
2022/06/06 03:40:06;;;;;;;10.80;7.05;;;13.40;99.90;;;;;;4992895;28;20060;-44
2022/06/06 03:42:31;;;;;;;11.20;7.72;;;13.60;99.90;;;;;;4992663;28;20798;-46
2022/06/06 03:45:25;;;;;;;14.73;7.85;;;13.50;99.90;;;;;;4992879;28;20060;-46
2022/06/06 03:48:02;;;;;;;11.38;7.47;;;12.40;99.90;;;;;;4923081;29;20744;-45
2022/06/06 03:50:50;;;;;;;12.90;7.35;;;13.40;99.90;;;;;;4950506;28;20167;-47
2022/06/06 03:53:45;;;;;;;13.18;8.15;;;13.70;99.90;;;;;;4950032;28;20055;-45
2022/06/06 03:56:22;;;;;;;11.93;7.53;;;14.20;99.90;;;;;;4930452;29;20058;-43
2022/06/06 03:58:50;;;;;;;9.40;6.95;;;13.20;99.90;;;;;;4932335;28;20147;-45
2022/06/06 04:01:17;;;;;;;12.77;8.05;;;14.40;99.90;;;;;;4916665;29;20550;-43
2022/06/06 04:03:44;;;;;;;11.23;7.22;;;13.40;99.90;;;;;;4916049;29;20075;-43
2022/06/06 04:06:10;;;;;;;10.05;7.20;;;13.70;99.90;;;;;;4915117;29;20197;-45
2022/06/06 04:08:36;;;;;;;11.70;7.32;;;14.00;99.90;;;;;;4960403;28;20062;-42
2022/06/06 04:11:28;;;;;;;10.98;7.88;;;15.00;99.90;;;;;;4975437;28;20050;-43
2022/06/06 04:14:21;;;;;;;11.82;7.38;;;13.50;99.90;;;;;;4959329;28;20057;-42
2022/06/06 04:17:05;;;;;;;11.60;8.15;;;13.50;99.90;;;;;;4976340;28;20050;-44
2022/06/06 04:19:42;;;;;;;13.23;7.50;;;13.70;99.90;;;;;;4975840;28;20050;-44
2022/06/06 04:22:34;;;;;;;9.95;6.35;;;13.20;99.90;;;;;;4971471;28;20045;-46
2022/06/06 04:25:24;;;;;;;10.75;7.63;;;13.40;99.90;;;;;;4999746;28;20139;-41
2022/06/06 04:27:57;;;;;;;10.15;7.38;;;13.40;99.90;;;;;;5032031;28;20557;-43
2022/06/06 04:30:49;;;;;;;10.43;7.07;;;14.60;99.90;;;;;;4997917;28;20436;-43
2022/06/06 04:33:15;;;;;;;8.32;6.22;;;14.10;99.90;;;;;;5024095;28;20053;-45
2022/06/06 04:35:55;;;;;;;8.32;5.65;;;14.80;99.90;;;;;;5052214;28;20504;-42
2022/06/06 04:38:38;;;;;;;7.68;5.78;;;15.30;99.90;;;;;;5086123;28;20094;-43
2022/06/06 04:41:08;;;;;;;7.10;5.13;;;13.40;99.90;;;;;;5052389;28;20049;-43
2022/06/06 04:44:16;;;;;;;6.15;4.90;;;15.00;99.90;;;;;;5051283;28;20500;-45
2022/06/06 04:46:47;;;;;;;5.95;3.72;;;13.60;99.90;;;;;;5025818;28;20046;-46
2022/06/06 04:49:14;;;;;;;5.95;3.90;;;13.40;99.90;;;;;;5010112;28;20585;-44
2022/06/06 04:51:44;;;;;;;8.43;4.97;;;14.30;99.90;;;;;;5009811;28;20203;-46
2022/06/06 04:54:18;;;;;;;8.43;4.65;;;14.40;99.90;;;;;;5011343;28;20483;-46
2022/06/06 04:56:45;;;;;;;8.48;5.40;;;13.40;99.90;;;;;;5009481;28;20659;-43
2022/06/06 04:59:13;;;;;;;14.63;6.85;;;13.20;99.90;;;;;;5027053;28;20648;-43
2022/06/06 05:01:41;;;;;;;8.75;6.53;;;14.50;99.90;;;;;;5010549;28;20060;-46
2022/06/06 05:04:07;;;;;;;10.18;6.88;;;13.20;99.90;;;;;;5009096;28;20137;-42
2022/06/06 05:07:17;;;;;;;11.70;7.45;;;13.30;99.90;;;;;;5026174;28;20730;-43
2022/06/06 05:10:12;;;;;;;12.57;7.40;;;13.40;99.90;;;;;;4951906;28;20046;-42
2022/06/06 05:13:13;;;;;;;10.80;7.75;;;13.40;99.90;;;;;;4952674;28;20346;-43
2022/06/06 05:15:49;;;;;;;11.43;7.78;;;13.30;99.90;;;;;;4953308;28;20148;-43
2022/06/06 05:18:36;;;;;;;12.43;8.52;;;13.50;99.90;;;;;;4952435;28;20058;-47
2022/06/06 05:21:24;;;;;;;11.90;8.63;;;13.30;99.90;;;;;;4957234;28;20104;-43
2022/06/06 05:24:07;;;;;;;13.20;7.85;;;14.00;99.90;;;;;;5000687;28;20053;-42
2022/06/06 05:26:52;;;;;;;12.90;9.00;;;15.30;99.90;;;;;;5020683;28;20045;-46
2022/06/06 05:29:45;;;;;;;19.05;10.55;;;13.20;99.90;;;;;;5006974;28;20129;-42
2022/06/06 05:32:54;;;;;;;18.35;10.15;;;13.20;99.90;;;;;;5004934;28;20511;-44
2022/06/06 05:35:37;;;;;;;19.92;10.77;;;13.10;99.90;;;;;;4962760;28;20053;-43
2022/06/06 05:38:45;;;;;;;21.85;11.20;;;14.80;99.90;;;;;;4990028;28;20050;-43
2022/06/06 05:41:42;;;;;;;17.75;10.90;;;13.20;99.90;;;;;;5072119;28;20421;-42
2022/06/06 05:45:00;;;;;;;18.63;11.27;;;13.10;99.90;;;;;;5050818;28;20048;-45
2022/06/06 05:47:49;;;;;;;20.67;10.70;;;12.90;99.90;;;;;;4997527;28;20069;-42
2022/06/06 05:50:36;;;;;;;20.27;10.48;;;13.20;99.90;;;;;;5028021;28;20049;-46
2022/06/06 05:53:30;;;;;;;16.23;8.40;;;13.70;99.90;;;;;;5029627;28;20095;-42
2022/06/06 05:56:07;;;;;;;16.00;8.68;;;13.00;99.90;;;;;;5009503;28;20077;-45
2022/06/06 05:58:55;;;;;;;16.65;8.77;;;13.20;99.90;;;;;;5009002;28;20045;-47
2022/06/06 06:01:39;;;;;;;15.23;8.75;;;12.90;99.90;;;;;;5031381;28;20049;-43
2022/06/06 06:04:30;;;;;;;15.07;8.32;;;13.00;99.90;;;;;;5012438;28;20147;-43
2022/06/06 06:07:22;;;;;;;15.00;8.38;;;13.40;99.90;;;;;;5032747;28;20049;-45
2022/06/06 06:10:11;;;;;;;15.45;8.52;;;13.20;99.90;;;;;;5014499;28;20046;-47
2022/06/06 06:12:51;;;;;;;15.57;8.52;;;13.10;99.90;;;;;;5011492;28;20060;-46
2022/06/06 06:15:33;;;;;;;17.70;9.30;;;13.50;99.90;;;;;;4993726;28;20469;-43
2022/06/06 06:18:01;;;;;;;17.80;9.60;;;13.10;99.90;;;;;;5010107;28;20045;-46
2022/06/06 06:20:35;;;;;;;15.55;8.43;;;14.40;99.90;;;;;;5042920;28;20291;-42
2022/06/06 06:23:07;;;;;;;17.60;8.57;;;13.90;99.90;;;;;;5042744;28;20098;-48
2022/06/06 06:25:37;;;;;;;15.10;7.82;;;13.30;99.90;;;;;;5033450;28;20048;-44
2022/06/06 06:28:11;;;;;;;14.02;8.63;;;13.70;99.90;;;;;;5049122;28;20109;-42
2022/06/06 06:31:22;;;;;;;13.18;7.80;;;13.10;99.90;;;;;;5035445;28;20048;-46
2022/06/06 06:33:51;;;;;;;12.77;8.27;;;13.30;99.90;;;;;;5037268;28;20040;-48
2022/06/06 06:36:42;;;;;;;14.88;8.63;;;14.00;99.90;;;;;;5053621;28;20090;-47
2022/06/06 06:39:25;;;;;;;9.30;6.30;;;13.30;99.90;;;;;;5054353;28;20044;-44
2022/06/06 06:42:29;;;;;;;11.07;5.35;;;13.40;99.90;;;;;;5055773;28;20139;-44
2022/06/06 06:45:03;;;;;;;7.75;5.28;;;13.40;99.90;;;;;;5069547;28;20052;-49
2022/06/06 06:47:35;;;;;;;7.70;3.85;;;13.40;99.90;;;;;;5037332;28;20056;-46
2022/06/06 06:50:21;;;;;;;6.90;4.25;;;13.60;99.90;;;;;;5035498;28;22012;-45
2022/06/06 06:52:54;;;;;;;7.40;3.78;;;13.40;99.90;;;;;;5037486;28;20099;-45
2022/06/06 06:55:39;;;;;;;8.43;4.13;;;15.40;99.90;;;;;;5070243;28;20060;-46
2022/06/06 06:58:46;;;;;;;6.28;3.60;;;13.50;99.90;;;;;;5036418;28;21135;-45
2022/06/06 07:01:20;;;;;;;7.68;3.45;;;13.60;99.90;;;;;;4977081;28;20136;-45
2022/06/06 07:10:57;;;;;;;7.55;2.92;;;13.80;99.90;;;;;;4953610;28;20062;-47
2022/06/06 07:13:42;;;;;;;7.82;3.58;;;13.90;99.90;;;;;;4937492;28;20141;-46
2022/06/06 07:16:22;;;;;;;7.10;3.30;;;13.80;99.90;;;;;;4970225;28;20062;-44
2022/06/06 07:18:55;;;;;;;10.13;3.70;;;13.70;99.90;;;;;;4937569;28;20054;-47
2022/06/06 07:21:23;;;;;;;6.78;3.60;;;13.90;99.90;;;;;;4920804;28;20471;-44
2022/06/06 07:23:52;;;;;;;9.05;3.13;;;13.80;99.90;;;;;;4922033;28;20054;-47
2022/06/06 07:26:18;;;;;;;6.15;3.00;;;14.20;99.90;;;;;;4937055;28;20518;-45
2022/06/06 07:28:44;;;;;;;5.95;3.20;;;14.50;99.90;;;;;;4938683;28;20182;-49
2022/06/06 07:31:16;;;;;;;6.65;3.20;;;14.40;99.90;;;;;;4945889;28;20439;-44
2022/06/06 07:34:00;;;;;;;7.53;3.30;;;16.40;99.90;;;;;;5029070;28;20064;-47
2022/06/06 07:36:33;;;;;;;11.10;3.45;;;15.50;99.90;;;;;;4993749;28;20061;-45
2022/06/06 07:39:17;;;;;;;6.45;3.28;;;14.10;99.90;;;;;;4995128;28;20709;-45
2022/06/06 07:41:57;;;;;;;8.70;3.08;;;14.10;99.90;;;;;;5027184;28;20049;-47
2022/06/06 07:44:43;;;;;;;5.43;2.70;;;14.30;99.90;;;;;;5036115;28;20132;-45
2022/06/06 07:47:27;;;;;;;8.27;2.83;;;14.20;99.90;;;;;;5085867;28;20028;-45
2022/06/06 07:50:19;;;;;;;8.93;2.95;;;15.00;99.90;;;;;;5052002;28;20052;-45
2022/06/06 07:53:00;;;;;;;6.80;3.20;;;15.10;99.90;;;;;;5052148;28;20049;-43
2022/06/06 07:55:41;;;;;;;6.43;2.95;;;15.80;99.90;;;;;;5052084;28;20052;-43
2022/06/06 07:58:09;;;;;;;5.90;2.40;;;15.00;99.90;;;;;;5050185;28;20131;-43
2022/06/06 08:00:38;;;;;;;7.93;2.80;;;15.40;99.90;;;;;;5033948;28;20550;-43
2022/06/06 08:03:30;;;;;;;4.68;2.53;;;15.80;99.90;;;;;;5051428;28;20044;-48
2022/06/06 08:06:04;;;;;;;8.73;2.67;;;17.60;99.90;;;;;;5050582;28;20044;-43
2022/06/06 08:09:02;;;;;;;6.63;2.58;;;16.90;99.90;;;;;;5050765;28;20048;-43
2022/06/06 08:11:47;;;;;;;10.00;3.17;;;16.30;99.90;;;;;;5051535;28;20101;-41
2022/06/06 08:14:30;;;;;;;6.75;3.00;;;16.00;99.90;;;;;;5083693;28;20604;-45
2022/06/06 08:17:24;;;;;;;8.40;3.85;;;15.50;99.90;;;;;;5068933;28;20507;-43
2022/06/06 08:20:01;;;;;;;8.45;3.92;;;15.40;99.90;;;;;;5052372;28;20574;-42
2022/06/06 08:22:29;;;;;;;7.07;3.90;;;15.00;99.90;;;;;;5032655;28;20048;-43
2022/06/06 08:24:59;;;;;;;9.25;4.35;;;14.90;99.90;;;;;;5051427;28;20036;-42
2022/06/06 08:27:28;;;;;;;7.30;4.63;;;15.70;99.90;;;;;;5052679;28;21322;-44
2022/06/06 08:29:54;;;;;;;10.00;4.82;;;15.20;99.90;;;;;;5052238;28;20127;-44
2022/06/06 08:32:21;;;;;;;9.63;4.22;;;14.80;99.90;;;;;;5049954;28;20694;-44
2022/06/06 08:34:48;;;;;;;8.98;3.88;;;16.70;99.90;;;;;;5086478;28;20048;-44
2022/06/06 08:37:25;;;;;;;8.27;3.95;;;15.00;99.90;;;;;;5052191;28;20816;-42
2022/06/06 08:40:26;;;;;;;7.68;4.03;;;15.00;99.90;;;;;;5086892;28;20044;-43
2022/06/06 08:43:11;;;;;;;7.32;3.75;;;14.80;99.90;;;;;;5053586;28;20040;-42
2022/06/06 08:45:43;;;;;;;7.97;3.53;;;14.40;99.90;;;;;;5051054;28;20123;-42
2022/06/06 08:48:39;;;;;;;9.27;3.88;;;14.30;99.90;;;;;;5051077;28;21155;-44
2022/06/06 08:51:41;;;;;;;8.85;3.38;;;14.10;99.90;;;;;;5051439;28;20052;-42
2022/06/06 08:54:10;;;;;;;6.17;3.30;;;14.00;99.90;;;;;;5084682;28;20071;-44
2022/06/06 08:57:03;;;;;;;8.25;3.72;;;15.00;99.90;;;;;;5085154;28;20041;-43
2022/06/06 09:00:02;;;;;;;11.57;4.25;;;13.80;99.90;;;;;;5033249;28;20044;-45
2022/06/06 09:03:12;;;;;;;10.60;4.22;;;13.80;99.90;;;;;;5051630;28;20109;-44
2022/06/06 09:06:00;;;;;;;11.68;5.10;;;13.80;99.90;;;;;;4978674;28;20054;-44
2022/06/06 09:08:47;;;;;;;9.40;4.68;;;14.60;99.90;;;;;;5011861;28;20060;-44
2022/06/06 09:11:15;;;;;;;11.25;5.63;;;13.60;99.90;;;;;;4990766;28;20633;-44
2022/06/06 09:14:00;;;;;;;9.88;5.38;;;14.60;99.90;;;;;;4997062;28;20045;-43
2022/06/06 09:16:46;;;;;;;8.25;5.93;;;16.00;99.90;;;;;;5011818;28;20050;-42
2022/06/06 09:19:40;;;;;;;10.25;4.85;;;14.10;99.90;;;;;;4997821;28;20033;-43
2022/06/06 09:22:41;;;;;;;7.32;4.65;;;14.40;99.90;;;;;;4992528;28;20045;-42
2022/06/06 09:25:55;;;;;;;8.73;4.53;;;14.60;99.90;;;;;;4993189;28;20220;-41
2022/06/06 09:28:44;;;;;;;7.03;4.70;;;14.60;99.90;;;;;;4961096;28;20132;-42
2022/06/06 09:31:31;;;;;;;7.57;4.32;;;14.90;99.90;;;;;;4991840;28;20050;-44
2022/06/06 09:34:21;;;;;;;9.15;4.38;;;15.40;99.90;;;;;;4959768;28;20131;-43
2022/06/06 09:37:04;;;;;;;9.80;4.35;;;16.00;99.90;;;;;;4959674;28;20594;-44
2022/06/06 09:40:05;;;;;;;8.05;3.70;;;17.30;99.90;;;;;;4971099;28;20165;-43
2022/06/06 09:43:08;;;;;;;7.53;4.18;;;16.10;99.90;;;;;;4997571;28;20045;-44
2022/06/06 09:45:56;;;;;;;6.57;3.08;;;16.00;99.90;;;;;;4971499;28;20050;-46
2022/06/06 09:48:57;;;;;;;7.85;3.38;;;16.00;99.90;;;;;;4957510;28;20050;-43
2022/06/06 09:51:58;;;;;;;10.68;3.30;;;15.80;99.90;;;;;;4955121;28;20042;-47
2022/06/06 10:00:59;;;;;;;6.60;1.88;;;17.10;99.90;;;;;;5014643;28;20171;-44
2022/06/06 10:03:44;;;;;;;6.15;1.70;;;17.40;99.90;;;;;;5030183;28;21651;-42
2022/06/06 10:06:20;;;;;;;5.55;1.48;;;17.90;99.90;;;;;;5030408;28;20134;-45
2022/06/06 10:09:08;;;;;;;11.95;2.92;;;18.00;99.90;;;;;;5031393;28;20053;-48
2022/06/06 10:11:58;;;;;;;9.57;2.03;;;18.10;99.90;;;;;;5029967;28;20052;-47
2022/06/06 10:15:05;;;;;;;9.45;2.10;;;18.20;99.90;;;;;;4997851;28;20413;-46
2022/06/06 10:18:03;;;;;;;7.25;1.50;;;18.50;99.90;;;;;;4971253;28;20049;-43
2022/06/06 10:20:47;;;;;;;7.78;1.38;;;18.40;99.90;;;;;;4955506;28;20082;-42
2022/06/06 10:23:19;;;;;;;4.25;1.40;;;18.50;99.90;;;;;;4969256;28;20160;-46
2022/06/06 10:25:58;;;;;;;6.63;1.40;;;18.30;99.90;;;;;;4985554;28;20089;-47
2022/06/06 10:28:42;;;;;;;7.65;1.40;;;18.40;99.90;;;;;;4984231;28;20042;-47
2022/06/06 10:31:34;;;;;;;5.57;1.30;;;20.20;99.90;;;;;;4969073;28;20050;-46
2022/06/06 10:34:08;;;;;;;5.75;0.88;;;18.40;99.90;;;;;;4969093;28;21142;-48
2022/06/06 10:36:55;;;;;;;7.57;1.20;;;18.20;99.90;;;;;;4985488;28;20053;-44
2022/06/06 10:39:46;;;;;;;10.82;1.27;;;18.00;99.90;;;;;;4953064;28;20943;-44
2022/06/06 10:42:27;;;;;;;5.50;1.30;;;18.30;99.90;;;;;;4986304;28;20678;-46
2022/06/06 10:45:05;;;;;;;7.95;1.52;;;18.50;99.90;;;;;;4968891;28;20474;-47
2022/06/06 10:47:58;;;;;;;8.30;1.60;;;18.60;99.90;;;;;;4980634;28;20052;-44
2022/06/06 10:53:50;;;;;;;5.53;1.20;;;18.50;99.90;;;;;;5049428;28;20078;-44
2022/06/06 10:56:41;;;;;;;6.50;1.05;;;18.70;99.90;;;;;;5049959;28;20055;-45
2022/06/06 10:59:27;;;;;;;7.93;1.60;;;18.30;99.90;;;;;;5050472;28;20409;-44
2022/06/06 11:02:19;;;;;;;5.10;1.10;;;19.50;99.90;;;;;;5048845;28;20048;-43
2022/06/06 11:05:11;;;;;;;7.25;1.40;;;17.80;99.90;;;;;;5048187;28;20049;-43
2022/06/06 11:08:04;;;;;;;6.78;1.77;;;17.40;99.90;;;;;;5032716;28;20041;-42
2022/06/06 11:10:57;;;;;;;7.85;1.02;;;17.30;99.90;;;;;;5014563;28;20034;-45
2022/06/06 11:13:29;;;;;;;5.72;1.20;;;17.70;99.90;;;;;;5031913;28;20147;-47
2022/06/06 11:16:20;;;;;;;6.53;1.27;;;17.80;99.90;;;;;;5015568;28;20121;-46
2022/06/06 11:19:05;;;;;;;5.90;1.20;;;17.90;99.90;;;;;;5053638;28;20658;-45
2022/06/06 11:22:07;;;;;;;6.97;1.33;;;18.20;99.90;;;;;;5035417;28;20041;-46
2022/06/06 11:24:45;;;;;;;5.65;1.20;;;18.60;99.90;;;;;;5035422;28;20898;-45
2022/06/06 11:27:30;;;;;;;8.30;1.52;;;18.40;99.90;;;;;;5035198;28;20043;-47
2022/06/06 11:30:12;;;;;;;10.05;1.88;;;18.30;99.90;;;;;;5050042;28;20037;-43
2022/06/06 11:33:02;;;;;;;5.93;1.38;;;18.70;99.90;;;;;;5013520;28;20055;-43
2022/06/06 11:35:41;;;;;;;7.30;1.20;;;18.40;99.90;;;;;;5035426;28;20059;-43
2022/06/06 11:38:11;;;;;;;3.70;0.90;;;20.60;99.90;;;;;;5033500;28;20049;-44
2022/06/06 11:40:58;;;;;;;11.05;1.75;;;18.10;99.90;;;;;;5032120;28;20654;-45
2022/06/06 11:43:43;;;;;;;5.88;1.20;;;17.80;99.90;;;;;;5053015;28;20047;-46
2022/06/06 11:46:34;;;;;;;6.78;1.15;;;17.50;99.90;;;;;;5086721;28;20055;-46
2022/06/06 11:49:31;;;;;;;5.38;1.42;;;17.40;99.90;;;;;;5052633;28;20068;-43
2022/06/06 11:52:22;;;;;;;5.57;1.25;;;17.00;99.90;;;;;;5053113;28;20044;-46
2022/06/06 11:55:12;;;;;;;6.55;1.20;;;17.00;99.90;;;;;;5067308;28;20648;-45
2022/06/06 11:58:01;;;;;;;9.90;1.17;;;16.70;99.90;;;;;;5011914;28;20100;-46
2022/06/06 12:00:36;;;;;;;8.40;1.40;;;16.90;99.90;;;;;;4984657;28;20453;-44
2022/06/06 12:03:16;;;;;;;9.32;1.42;;;16.80;99.90;;;;;;4995995;28;20170;-45
2022/06/06 12:06:02;;;;;;;8.57;1.13;;;17.20;99.90;;;;;;4995960;28;20115;-46
2022/06/06 12:08:38;;;;;;;5.30;1.10;;;17.30;99.90;;;;;;4994837;28;20884;-43
2022/06/06 12:11:50;;;;;;;5.53;1.00;;;17.90;99.90;;;;;;4994953;28;20052;-45
2022/06/06 12:14:44;;;;;;;10.27;1.60;;;17.80;99.90;;;;;;4995248;28;20053;-46
2022/06/06 12:17:30;;;;;;;5.72;1.27;;;18.00;99.90;;;;;;4994786;28;20080;-45
2022/06/06 12:20:14;;;;;;;8.32;1.33;;;17.70;99.90;;;;;;5010771;28;20037;-47
2022/06/06 12:23:31;;;;;;;7.57;1.35;;;17.60;99.90;;;;;;5012714;28;20053;-47
2022/06/06 12:26:14;;;;;;;5.75;1.65;;;17.40;99.90;;;;;;4936205;28;20066;-46
2022/06/06 12:29:01;;;;;;;11.13;1.95;;;16.60;99.90;;;;;;4934848;28;20094;-46
2022/06/06 12:31:44;;;;;;;5.57;1.70;;;16.80;99.90;;;;;;4920047;28;20047;-46
2022/06/06 12:34:36;;;;;;;11.48;1.98;;;16.50;99.90;;;;;;4963131;28;20550;-42
2022/06/06 12:37:14;;;;;;;6.10;1.45;;;16.30;99.90;;;;;;4973815;28;20088;-44
2022/06/06 12:40:19;;;;;;;6.80;1.63;;;16.60;99.90;;;;;;4959211;28;20061;-46
2022/06/06 12:43:16;;;;;;;8.00;2.05;;;16.60;99.90;;;;;;4989770;28;20596;-43
2022/06/06 12:45:57;;;;;;;5.05;1.65;;;16.40;99.90;;;;;;4956981;28;20211;-42
2022/06/06 12:49:05;;;;;;;4.72;1.40;;;16.20;99.90;;;;;;4957803;28;20041;-47
2022/06/06 12:52:05;;;;;;;7.97;1.98;;;15.90;99.90;;;;;;4971913;28;20057;-46
2022/06/06 12:58:01;;;;;;;7.35;2.42;;;15.50;99.90;;;;;;5040422;28;20546;-43
2022/06/06 13:03:21;;;;;;;6.65;2.30;;;16.10;99.90;;;;;;5084461;28;20044;-48
2022/06/06 13:05:59;;;;;;;5.43;2.42;;;15.00;99.90;;;;;;5050613;28;20040;-43
2022/06/06 13:08:30;;;;;;;8.25;2.60;;;15.00;99.90;;;;;;5085798;28;20040;-43
2022/06/06 13:11:29;;;;;;;8.15;2.25;;;16.30;99.90;;;;;;5052117;28;20870;-46
2022/06/06 13:14:35;;;;;;;8.00;2.67;;;15.60;99.90;;;;;;5031750;28;20167;-48
2022/06/06 13:17:05;;;;;;;8.60;2.67;;;15.50;99.90;;;;;;5050006;28;20064;-44
2022/06/06 13:20:10;;;;;;;7.90;2.70;;;15.40;99.90;;;;;;5032371;28;20159;-45
2022/06/06 13:23:04;;;;;;;6.43;2.25;;;15.60;99.90;;;;;;5031455;28;20055;-43
2022/06/06 13:26:00;;;;;;;5.80;2.35;;;15.40;99.90;;;;;;5032646;28;20076;-43
2022/06/06 13:28:29;;;;;;;9.27;2.70;;;17.20;99.90;;;;;;5032785;28;20561;-46
2022/06/06 13:31:01;;;;;;;7.78;2.72;;;15.10;99.90;;;;;;5031739;28;20072;-45
2022/06/06 13:33:58;;;;;;;6.60;3.30;;;15.50;99.90;;;;;;5032051;28;20053;-44
2022/06/06 13:36:41;;;;;;;6.68;2.90;;;15.10;99.90;;;;;;5031279;28;20167;-46
2022/06/06 13:39:31;;;;;;;6.55;2.90;;;15.00;99.90;;;;;;5048589;28;20484;-45
2022/06/06 13:42:35;;;;;;;9.35;3.50;;;16.50;99.90;;;;;;5032840;28;20730;-42
2022/06/06 13:45:10;;;;;;;7.32;3.08;;;16.90;99.90;;;;;;5016634;28;20057;-41
2022/06/06 13:48:15;;;;;;;4.90;2.55;;;14.90;99.90;;;;;;5032270;28;20040;-43
2022/06/06 13:51:11;;;;;;;7.47;2.80;;;14.50;99.90;;;;;;5048759;28;20044;-48
2022/06/06 13:54:04;;;;;;;5.65;3.10;;;14.40;99.90;;;;;;5084466;28;20059;-46
2022/06/06 13:56:41;;;;;;;7.93;3.88;;;14.30;99.90;;;;;;5049857;28;20509;-43
2022/06/06 13:59:16;;;;;;;6.47;3.58;;;14.30;99.90;;;;;;5050955;28;20044;-43
2022/06/06 14:02:03;;;;;;;7.10;3.70;;;14.30;99.90;;;;;;5052012;28;20064;-43
2022/06/06 14:04:48;;;;;;;6.63;4.53;;;14.30;99.90;;;;;;5050006;28;20523;-42
2022/06/06 14:07:44;;;;;;;12.30;5.13;;;14.20;99.90;;;;;;5086065;28;20052;-42
2022/06/06 14:10:14;;;;;;;9.52;5.05;;;14.10;99.90;;;;;;5033132;28;20064;-42
2022/06/06 14:13:04;;;;;;;8.48;4.28;;;14.30;99.90;;;;;;5032883;28;20227;-43
2022/06/06 14:15:39;;;;;;;11.57;4.90;;;15.60;99.90;;;;;;5034856;28;20044;-42
2022/06/06 14:18:09;;;;;;;10.05;4.50;;;13.90;99.90;;;;;;5029999;28;20139;-45
2022/06/06 14:20:36;;;;;;;9.48;5.38;;;14.00;99.90;;;;;;5049293;28;20045;-45
2022/06/06 14:23:28;;;;;;;11.30;4.43;;;14.60;99.90;;;;;;5051486;28;20056;-45
2022/06/06 14:26:01;;;;;;;7.00;3.63;;;14.10;99.90;;;;;;5050295;28;20573;-43
2022/06/06 14:28:34;;;;;;;4.97;2.45;;;15.70;99.90;;;;;;5049686;28;20063;-43